Pagina principală
METAR-TAF:

METAR-TAF

Aeroporturi :

Funafuti, Tuvalu

Latitudine: 08-31S, longitudine: 179-13E, elevație: 1 m

Observații meteo curente

Raportul a fost făcut în urmă cu 28 de minute, la 13:00 UTC
Vânt 10 kt de la Est
Temperatură 28°C
Umiditate 84%
Presiune 1010 hPa
Vizibilitate de 10 km sau mai mult
Nori puțini la o înălțime de 1800 picior, Cumulus congestus.

METAR: NGFU 281300Z 09010KT 9999 FEW018TCU 28/25 Q1010

Ora: 01:28 (13:28 UTC)

Prognoză

Raportul a fost făcut în urmă cu 2 ore și 8 de minute, la 11:20 UTC
Prognoză valabilă de la 28 ora 12 UTC la 29 ora 12 UTC
Vânt 5 kt de la Est
Vizibilitate de 10 km sau mai mult
Nori împrăștiați la o înălțime de 1800 picior
Probabilitate 40% :
Temporar
de la 28 ora 16 UTC la 28 ora 21 UTC
Vizibilitate: 8000 m
Nori fragmentați la o înălțime de 1600 picior
averse de ploaie

TAF: NGFU 281120Z 2812/2912 09005KT 9999 SCT018 PROB40 TEMPO 2816/2821 8000 SHRA BKN016

Observații și prognoze meteo pentru peste 4.000 de aeroporturi (rapoarte METAR și TAF).

Stațiile disponibile sunt reprezentate pe hartă prin puncte galbene și roșii.

Țineți indicatorul mouse-ului pe punctul dorit pentru a vedea denumirea stației.

Apoi, faceți clic pentru a vedea observațiile și prognozele meteorologice.

Pentru a schimba harta: Pentru mărire, faceți clic pe butoanele verzi cu cruce neagră; pentru micșorare, pe butonul verde cu o liniuță; pentru hărți învecinate, pe săgețile verzi.


METAR-TAF: